Decatur, Illinois
Current Conditions -  °F | °C
As of 2:54 AM on Sunday 23 Nov 2014 (Local Time) from KDEC Reporting Station
Broken Clouds Broken Clouds  
Wind Chill: 50°   Ceiling: 9000
Heat Index: 50°   Visibility: 10mi
Dew Point: 44°   Wind: 9mph
Humidity: 80%   Direction: 170°S
Pressure: 29.83"   Gusts: NA
Location:  39.85°N, 88.95°W
Report Text: KDEC 230854Z 17008KT 10SM SCT070 BKN090 10/07 A2983 RMK AO2 SLP100 T01000067 56019
Loading
Personal Weather Stations






























Interactive Weather Map New forecast layout! Learn more

10-Day Weather Forecast

Advertisements
Track Severe Weather on mobile